createdAt,value
2018-12-27T00:01:28.448Z,63.72
2018-12-27T00:03:59.999Z,63.72
2018-12-27T00:06:30.963Z,63.32
2018-12-27T00:09:01.995Z,63.00
2018-12-27T00:11:33.720Z,62.66
2018-12-27T00:14:04.696Z,63.58
2018-12-27T00:16:35.729Z,63.52
2018-12-27T00:19:06.700Z,63.23
2018-12-27T00:21:38.726Z,64.14
2018-12-27T00:24:09.948Z,65.07
2018-12-27T00:26:40.923Z,64.34
2018-12-27T00:29:11.894Z,64.91
2018-12-27T00:31:44.253Z,64.65
2018-12-27T00:34:15.557Z,63.66
2018-12-27T00:36:46.850Z,63.63
2018-12-27T00:39:18.187Z,63.68
2018-12-27T00:41:49.462Z,63.50
2018-12-27T00:44:20.768Z,63.96
2018-12-27T00:46:53.293Z,64.13
2018-12-27T00:49:24.634Z,64.37
2018-12-27T00:51:55.926Z,64.47
2018-12-27T00:54:27.269Z,64.30
2018-12-27T00:56:59.740Z,64.47
2018-12-27T00:59:31.044Z,64.16
2018-12-27T01:02:02.327Z,63.83
2018-12-27T01:04:33.694Z,63.85
2018-12-27T01:07:05.250Z,63.66
2018-12-27T01:09:36.555Z,63.62
2018-12-27T01:12:08.083Z,64.58
2018-12-27T01:14:39.452Z,64.28
2018-12-27T01:17:10.746Z,64.22
2018-12-27T01:19:42.369Z,64.02
2018-12-27T01:22:13.951Z,63.87
2018-12-27T01:24:46.381Z,64.02
2018-12-27T01:27:17.653Z,64.08
2018-12-27T01:29:49.257Z,64.10
2018-12-27T01:32:21.251Z,63.97
2018-12-27T01:34:52.566Z,63.53
2018-12-27T01:37:24.140Z,63.73
2018-12-27T01:39:55.443Z,62.91
2018-12-27T01:42:26.878Z,63.75
2018-12-27T01:44:58.744Z,63.60
2018-12-27T01:47:30.028Z,63.43
2018-12-27T01:50:01.438Z,63.32
2018-12-27T01:52:32.771Z,63.69
2018-12-27T01:55:04.435Z,62.88
2018-12-27T01:57:36.040Z,62.75
2018-12-27T02:00:07.361Z,62.40
2018-12-27T02:02:39.214Z,62.46
2018-12-27T02:05:10.522Z,63.61
2018-12-27T02:07:43.021Z,63.82
2018-12-27T02:10:14.318Z,63.53
2018-12-27T02:12:46.492Z,63.13
2018-12-27T02:15:17.794Z,63.26
2018-12-27T02:17:49.242Z,62.83
2018-12-27T02:20:21.549Z,63.05
2018-12-27T02:22:52.814Z,63.46
2018-12-27T02:25:24.824Z,63.56
2018-12-27T02:27:56.103Z,62.97
2018-12-27T02:30:27.714Z,62.71
2018-12-27T02:32:59.086Z,62.66
2018-12-27T02:35:30.366Z,63.16
2018-12-27T02:38:01.741Z,62.75
2018-12-27T02:40:33.006Z,62.62
2018-12-27T02:43:04.282Z,62.56
2018-12-27T02:45:35.578Z,63.28
2018-12-27T02:48:06.864Z,63.25
2018-12-27T02:50:38.506Z,63.10
2018-12-27T02:53:10.084Z,62.96
2018-12-27T02:55:41.691Z,63.42
2018-12-27T02:58:12.970Z,63.84
2018-12-27T03:00:44.368Z,63.84
2018-12-27T03:03:15.651Z,62.86
2018-12-27T03:05:47.245Z,63.68
2018-12-27T03:08:18.529Z,63.28
2018-12-27T03:10:49.839Z,63.50
2018-12-27T03:13:21.200Z,63.50
2018-12-27T03:15:52.812Z,63.67
2018-12-27T03:18:24.098Z,64.33
2018-12-27T03:20:55.868Z,63.95
2018-12-27T03:23:27.179Z,63.59
2018-12-27T03:25:58.465Z,63.52
2018-12-27T03:28:30.443Z,63.93
2018-12-27T03:31:01.989Z,64.58
2018-12-27T03:33:33.265Z,64.63
2018-12-27T03:36:04.554Z,64.20
2018-12-27T03:38:35.870Z,63.74
2018-12-27T03:41:07.171Z,64.20
2018-12-27T03:43:39.048Z,64.25
2018-12-27T03:46:10.352Z,64.10
2018-12-27T03:48:43.428Z,64.42
2018-12-27T03:51:14.898Z,63.64
2018-12-27T03:53:46.788Z,63.07
2018-12-27T03:56:18.319Z,63.83
2018-12-27T03:58:49.961Z,63.78
2018-12-27T04:01:21.899Z,64.18
2018-12-27T04:04:01.078Z,63.65
2018-12-27T04:06:26.236Z,63.52
2018-12-27T04:08:57.781Z,62.98
2018-12-27T04:11:29.091Z,63.77
2018-12-27T04:14:00.365Z,63.62
2018-12-27T04:16:31.581Z,63.57
2018-12-27T04:19:02.590Z,63.24
2018-12-27T04:21:33.635Z,62.70
2018-12-27T04:24:05.268Z,62.60
2018-12-27T04:26:36.230Z,62.29
2018-12-27T04:29:07.186Z,62.87
2018-12-27T04:31:38.791Z,62.90
2018-12-27T04:34:10.687Z,62.51
2018-12-27T04:36:42.703Z,63.38
2018-12-27T04:39:13.651Z,63.11
2018-12-27T04:41:45.417Z,62.56
2018-12-27T04:44:16.895Z,63.48
2018-12-27T04:46:47.860Z,62.90
2018-12-27T04:49:19.258Z,63.55
2018-12-27T04:51:50.609Z,63.11
2018-12-27T04:54:22.362Z,63.30
2018-12-27T04:56:53.606Z,62.82
2018-12-27T04:59:25.889Z,62.17
2018-12-27T05:01:57.220Z,62.14
2018-12-27T05:04:28.184Z,62.92
2018-12-27T05:06:59.408Z,62.69
2018-12-27T05:09:30.385Z,62.68
2018-12-27T05:12:01.700Z,62.77
2018-12-27T05:14:32.726Z,62.27
2018-12-27T05:17:03.702Z,62.77
2018-12-27T05:19:34.828Z,62.00
2018-12-27T05:22:06.126Z,62.15
2018-12-27T05:24:37.077Z,62.65
2018-12-27T05:27:08.311Z,62.83
2018-12-27T05:29:39.569Z,62.66
2018-12-27T05:32:10.563Z,62.23
2018-12-27T05:34:41.585Z,61.83
2018-12-27T05:37:12.545Z,61.21
2018-12-27T05:39:43.490Z,61.08
2018-12-27T05:42:14.449Z,61.78
2018-12-27T05:44:46.492Z,62.11
2018-12-27T05:47:17.444Z,62.82
2018-12-27T05:49:48.774Z,62.69
2018-12-27T05:52:19.750Z,61.84
2018-12-27T05:54:50.713Z,61.66
2018-12-27T05:57:22.074Z,61.58
2018-12-27T05:59:53.050Z,61.36
2018-12-27T06:02:24.270Z,61.81
2018-12-27T06:04:56.039Z,62.25
2018-12-27T06:07:26.995Z,62.33
2018-12-27T06:09:58.326Z,62.06
2018-12-27T06:12:29.387Z,61.85
2018-12-27T06:15:00.341Z,62.90
2018-12-27T06:17:32.357Z,62.77
2018-12-27T06:20:03.412Z,63.17
2018-12-27T06:22:34.366Z,62.85
2018-12-27T06:25:05.684Z,61.98
2018-12-27T06:27:36.665Z,62.70
2018-12-27T06:30:08.084Z,62.55
2018-12-27T06:32:39.281Z,62.71
2018-12-27T06:35:10.375Z,63.28
2018-12-27T06:37:41.738Z,62.27
2018-12-27T06:40:12.764Z,62.89
2018-12-27T06:42:44.854Z,63.54
2018-12-27T06:45:15.910Z,63.44
2018-12-27T06:47:47.206Z,62.63
2018-12-27T06:50:18.160Z,62.58
2018-12-27T06:52:49.698Z,62.40
2018-12-27T06:55:20.703Z,62.24
2018-12-27T06:57:51.664Z,62.21
2018-12-27T07:00:23.000Z,62.16
2018-12-27T07:02:54.583Z,62.66
2018-12-27T07:05:25.529Z,62.24
2018-12-27T07:07:56.490Z,62.11
2018-12-27T07:10:27.433Z,61.72
2018-12-27T07:12:58.761Z,61.74
2018-12-27T07:15:29.807Z,62.27
2018-12-27T07:18:00.758Z,62.69
2018-12-27T07:20:31.968Z,62.16
2018-12-27T07:23:02.927Z,62.38
2018-12-27T07:25:34.119Z,62.42
2018-12-27T07:28:05.364Z,62.35
2018-12-27T07:30:36.324Z,61.81
2018-12-27T07:33:07.283Z,61.40
2018-12-27T07:35:38.549Z,61.48
2018-12-27T07:38:09.551Z,62.16
2018-12-27T07:40:41.208Z,62.27
2018-12-27T07:43:12.418Z,63.13
2018-12-27T07:45:43.378Z,62.65
2018-12-27T07:48:14.609Z,62.49
2018-12-27T07:50:46.798Z,62.04
2018-12-27T07:53:17.760Z,61.86
2018-12-27T07:55:48.723Z,61.97
2018-12-27T07:58:19.921Z,62.15
2018-12-27T08:00:50.872Z,62.40
2018-12-27T08:03:22.102Z,62.52
2018-12-27T08:05:53.066Z,62.61
2018-12-27T08:08:24.039Z,62.43
2018-12-27T08:10:55.070Z,62.69
2018-12-27T08:13:26.194Z,62.95
2018-12-27T08:15:57.510Z,61.90
2018-12-27T08:18:29.056Z,61.53
2018-12-27T08:21:00.135Z,60.77
2018-12-27T08:23:32.292Z,60.25
2018-12-27T08:26:03.359Z,60.34
2018-12-27T08:28:34.318Z,60.97
2018-12-27T08:31:05.634Z,61.27
2018-12-27T08:33:36.688Z,61.83
2018-12-27T08:36:08.018Z,62.02
2018-12-27T08:38:38.982Z,62.74
2018-12-27T08:41:09.933Z,62.60
2018-12-27T08:43:40.901Z,62.56
2018-12-27T08:46:12.701Z,62.18
2018-12-27T08:48:43.947Z,63.03
2018-12-27T08:51:15.726Z,63.03
2018-12-27T08:53:46.999Z,63.10
2018-12-27T08:56:17.945Z,62.86
2018-12-27T08:58:49.484Z,62.89
2018-12-27T09:01:20.437Z,63.01
2018-12-27T09:03:51.464Z,63.12
2018-12-27T09:06:22.489Z,62.99
2018-12-27T09:08:53.467Z,62.46
2018-12-27T09:11:24.418Z,62.16
2018-12-27T09:13:55.377Z,62.45
2018-12-27T09:16:26.451Z,62.98
2018-12-27T09:18:57.689Z,63.18
2018-12-27T09:21:28.627Z,63.07
2018-12-27T09:23:59.574Z,63.13
2018-12-27T09:26:31.103Z,63.05
2018-12-27T09:29:02.067Z,62.91
2018-12-27T09:31:33.887Z,63.03
2018-12-27T09:34:04.886Z,63.84
2018-12-27T09:36:35.815Z,64.07
2018-12-27T09:39:08.504Z,63.90
2018-12-27T09:41:39.455Z,63.97
2018-12-27T09:44:11.096Z,63.81
2018-12-27T09:46:42.296Z,63.47
2018-12-27T09:49:13.368Z,63.21
2018-12-27T09:51:44.710Z,63.36
2018-12-27T09:54:15.683Z,63.31
2018-12-27T09:56:47.111Z,63.16
2018-12-27T09:59:18.072Z,62.93
2018-12-27T10:01:53.093Z,62.31
2018-12-27T10:04:24.422Z,62.55
2018-12-27T10:06:55.459Z,62.56
2018-12-27T10:09:27.100Z,62.61
2018-12-27T10:11:58.366Z,62.32
2018-12-27T10:14:29.389Z,62.62
2018-12-27T10:17:00.732Z,63.77
2018-12-27T10:19:31.724Z,63.16
2018-12-27T10:22:03.766Z,62.52
2018-12-27T10:24:34.792Z,62.63
2018-12-27T10:27:06.335Z,62.76
2018-12-27T10:29:37.394Z,63.25
2018-12-27T10:32:08.594Z,63.14
2018-12-27T10:34:39.875Z,62.89
2018-12-27T10:37:10.905Z,62.64
2018-12-27T10:39:42.105Z,61.42
2018-12-27T10:42:13.100Z,61.72
2018-12-27T10:44:44.170Z,61.09
2018-12-27T10:47:15.131Z,61.30
2018-12-27T10:49:47.343Z,60.51
2018-12-27T10:52:18.411Z,60.47
2018-12-27T10:54:49.934Z,59.21
2018-12-27T10:57:20.956Z,58.48
2018-12-27T10:59:52.320Z,58.19
2018-12-27T11:02:23.604Z,58.86
2018-12-27T11:04:55.336Z,57.48
2018-12-27T11:07:26.372Z,57.46
2018-12-27T11:09:57.341Z,56.81
2018-12-27T11:12:28.554Z,57.13
2018-12-27T11:14:59.505Z,56.72
2018-12-27T11:17:30.556Z,55.33
2018-12-27T11:20:01.985Z,56.72
2018-12-27T11:22:34.295Z,56.48
2018-12-27T11:25:05.427Z,54.71
2018-12-27T11:27:36.813Z,55.19
2018-12-27T11:30:08.681Z,55.89
2018-12-27T11:32:39.743Z,55.01
2018-12-27T11:35:11.098Z,54.38
2018-12-27T11:37:42.169Z,54.22
2018-12-27T11:40:13.115Z,55.34
2018-12-27T11:42:44.093Z,55.83
2018-12-27T11:45:15.578Z,56.89
2018-12-27T11:47:47.573Z,56.56
2018-12-27T11:50:19.507Z,57.12
2018-12-27T11:52:50.983Z,57.14
2018-12-27T11:55:22.015Z,57.51
2018-12-27T11:57:52.976Z,57.41
2018-12-27T12:00:24.007Z,58.02
2018-12-27T12:02:55.372Z,58.55
2018-12-27T12:05:26.489Z,58.66
2018-12-27T12:07:57.720Z,58.61
2018-12-27T12:10:28.733Z,58.26
2018-12-27T12:13:00.000Z,58.40
2018-12-27T12:15:30.963Z,57.69
2018-12-27T12:18:01.932Z,57.45
2018-12-27T12:20:35.715Z,57.58
2018-12-27T12:23:06.852Z,57.69
2018-12-27T12:25:37.909Z,58.92
2018-12-27T12:28:09.321Z,60.40
2018-12-27T12:30:40.395Z,60.96
2018-12-27T12:33:11.347Z,61.10
2018-12-27T12:35:42.329Z,60.86
2018-12-27T12:38:13.628Z,61.65
2018-12-27T12:40:44.999Z,61.77
2018-12-27T12:43:15.988Z,61.82
2018-12-27T12:45:48.689Z,61.96
2018-12-27T12:48:20.097Z,62.32
2018-12-27T12:50:51.122Z,62.09
2018-12-27T12:53:22.406Z,62.32
2018-12-27T12:55:53.493Z,61.80
2018-12-27T12:58:24.780Z,62.29
2018-12-27T13:00:55.839Z,62.39
2018-12-27T13:03:26.877Z,62.46
2018-12-27T13:05:57.841Z,63.07
2018-12-27T13:08:29.017Z,63.26
2018-12-27T13:11:00.008Z,62.87
2018-12-27T13:13:30.986Z,62.59
2018-12-27T13:16:01.945Z,63.08
2018-12-27T13:18:33.432Z,63.49
2018-12-27T13:21:05.073Z,63.13
2018-12-27T13:23:38.171Z,63.22
2018-12-27T13:26:09.408Z,63.62
2018-12-27T13:28:41.072Z,63.83
2018-12-27T13:31:12.030Z,63.52
2018-12-27T13:33:43.012Z,63.44
2018-12-27T13:36:14.003Z,63.50
2018-12-27T13:38:46.738Z,63.38
2018-12-27T13:41:17.936Z,63.17
2018-12-27T13:43:49.804Z,62.99
2018-12-27T13:46:21.414Z,62.96
2018-12-27T13:48:52.699Z,63.82
2018-12-27T13:51:23.690Z,63.95
2018-12-27T13:53:54.998Z,64.06
2018-12-27T13:56:26.209Z,63.94
2018-12-27T13:58:57.200Z,63.90
2018-12-27T14:01:28.192Z,64.24
2018-12-27T14:03:59.276Z,63.80
2018-12-27T14:06:32.861Z,63.84
2018-12-27T14:09:04.631Z,64.08
2018-12-27T14:11:36.538Z,63.96
2018-12-27T14:14:07.569Z,64.21
2018-12-27T14:16:38.574Z,64.33
2018-12-27T14:19:11.145Z,64.34
2018-12-27T14:21:42.453Z,64.61
2018-12-27T14:24:13.438Z,64.42
2018-12-27T14:26:44.468Z,64.51
2018-12-27T14:29:15.816Z,64.27
2018-12-27T14:31:47.792Z,64.37
2018-12-27T14:34:18.832Z,64.36
2018-12-27T14:36:49.788Z,64.22
2018-12-27T14:39:20.773Z,64.07
2018-12-27T14:41:51.822Z,63.87
2018-12-27T14:44:23.833Z,64.32
2018-12-27T14:46:54.860Z,64.69
2018-12-27T14:49:25.868Z,64.45
2018-12-27T14:51:57.185Z,63.76
2018-12-27T14:54:28.406Z,63.71
2018-12-27T14:56:59.419Z,64.42
2018-12-27T14:59:30.409Z,63.80
2018-12-27T15:02:01.358Z,63.89
2018-12-27T15:04:32.927Z,63.14
2018-12-27T15:07:04.237Z,63.50
2018-12-27T15:09:35.551Z,63.26
2018-12-27T15:12:07.133Z,63.61
2018-12-27T15:14:38.675Z,63.19
2018-12-27T15:17:11.225Z,63.32
2018-12-27T15:19:42.544Z,63.56
2018-12-27T15:22:13.739Z,63.40
2018-12-27T15:24:45.205Z,63.46
2018-12-27T15:27:16.150Z,63.39
2018-12-27T15:29:48.033Z,63.04
2018-12-27T15:32:19.219Z,62.87
2018-12-27T15:34:50.831Z,62.38
2018-12-27T15:37:21.793Z,62.57
2018-12-27T15:39:53.052Z,62.45
2018-12-27T15:42:24.276Z,62.66
2018-12-27T15:44:55.288Z,62.40
2018-12-27T15:47:26.978Z,62.79
2018-12-27T15:49:58.324Z,62.76
2018-12-27T15:52:29.279Z,62.55
2018-12-27T15:55:00.269Z,62.64
2018-12-27T15:57:31.216Z,62.62
2018-12-27T16:00:02.492Z,62.44
2018-12-27T16:02:34.514Z,62.57
2018-12-27T16:05:05.631Z,62.70
2018-12-27T16:07:36.587Z,62.82
2018-12-27T16:10:08.050Z,62.89
2018-12-27T16:12:39.008Z,62.90
2018-12-27T16:15:10.401Z,63.00
2018-12-27T16:17:42.270Z,63.09
2018-12-27T16:20:13.264Z,63.23
2018-12-27T16:22:44.220Z,63.38
2018-12-27T16:25:15.828Z,63.34
2018-12-27T16:27:47.032Z,63.42
2018-12-27T16:30:18.066Z,63.55
2018-12-27T16:32:49.369Z,63.54
2018-12-27T16:35:20.671Z,63.80
2018-12-27T16:37:51.746Z,64.05
2018-12-27T16:40:23.179Z,63.94
2018-12-27T16:42:54.508Z,63.74
2018-12-27T16:45:26.084Z,63.78
2018-12-27T16:47:57.417Z,63.74
2018-12-27T16:50:28.812Z,63.70
2018-12-27T16:52:59.767Z,63.83
2018-12-27T16:55:30.768Z,63.92
2018-12-27T16:58:02.077Z,64.19
2018-12-27T17:00:33.065Z,64.41
2018-12-27T17:03:04.379Z,64.61
2018-12-27T17:05:35.355Z,64.03
2018-12-27T17:08:06.304Z,64.01
2018-12-27T17:10:37.766Z,64.01
2018-12-27T17:13:09.139Z,64.09
2018-12-27T17:15:40.395Z,63.85
2018-12-27T17:18:11.346Z,63.57
2018-12-27T17:20:43.597Z,64.60
2018-12-27T17:23:15.092Z,64.05
2018-12-27T17:25:46.538Z,63.54
2018-12-27T17:28:17.818Z,64.35
2018-12-27T17:30:48.805Z,64.38
2018-12-27T17:33:20.039Z,63.94
2018-12-27T17:38:21.066Z,64.41
2018-12-27T17:40:52.075Z,63.97
2018-12-27T17:43:23.117Z,63.72
2018-12-27T17:45:54.883Z,63.87
2018-12-27T17:48:26.856Z,63.66
2018-12-27T17:50:57.879Z,63.12
2018-12-27T17:53:28.984Z,63.46
2018-12-27T17:55:59.985Z,64.23
2018-12-27T17:58:31.575Z,63.70
2018-12-27T18:01:02.652Z,63.30
2018-12-27T18:03:34.475Z,63.63
2018-12-27T18:06:05.823Z,64.05
2018-12-27T18:08:36.855Z,63.99
2018-12-27T18:11:07.846Z,64.20
2018-12-27T18:13:38.873Z,64.88
2018-12-27T18:16:09.894Z,65.15
2018-12-27T18:18:41.338Z,65.34
2018-12-27T18:21:12.316Z,64.07
2018-12-27T18:23:43.586Z,64.46
2018-12-27T18:26:14.682Z,64.95
2018-12-27T18:28:45.631Z,64.52
2018-12-27T18:31:16.860Z,64.71
2018-12-27T18:33:47.808Z,64.33
2018-12-27T18:36:18.788Z,64.90
2018-12-27T18:38:50.798Z,64.85
2018-12-27T18:41:21.867Z,64.56
2018-12-27T18:43:53.059Z,64.60
2018-12-27T18:46:24.344Z,65.18
2018-12-27T18:48:55.573Z,64.46
2018-12-27T18:51:26.552Z,65.06
2018-12-27T18:53:57.764Z,65.18
2018-12-27T18:56:28.983Z,64.83
2018-12-27T18:59:00.031Z,65.07
2018-12-27T19:01:31.038Z,65.19
2018-12-27T19:04:02.041Z,65.17
2018-12-27T19:06:33.589Z,65.31
2018-12-27T19:09:07.083Z,66.38
2018-12-27T19:12:32.443Z,65.56
2018-12-27T19:15:12.478Z,65.23
2018-12-27T19:17:59.459Z,64.95
2018-12-27T19:20:31.423Z,64.84
2018-12-27T19:23:22.641Z,65.00
2018-12-27T19:25:53.905Z,64.56
2018-12-27T19:28:25.743Z,64.41
2018-12-27T19:30:56.732Z,64.98
2018-12-27T19:33:27.921Z,64.74
2018-12-27T19:35:59.482Z,64.79
2018-12-27T19:38:30.914Z,65.46
2018-12-27T19:41:01.960Z,64.83
2018-12-27T19:43:33.182Z,65.03
2018-12-27T19:46:04.880Z,64.48
2018-12-27T19:48:35.879Z,64.57
2018-12-27T19:51:06.885Z,65.45
2018-12-27T19:53:37.829Z,65.13
2018-12-27T19:56:08.902Z,65.29
2018-12-27T19:58:39.863Z,65.22
2018-12-27T20:01:11.156Z,65.89
2018-12-27T20:03:43.099Z,65.48
2018-12-27T20:06:14.437Z,65.44
2018-12-27T20:08:45.390Z,65.44
2018-12-27T20:11:16.763Z,64.98
2018-12-27T20:13:49.017Z,64.88
2018-12-27T20:16:21.020Z,64.67
2018-12-27T20:18:51.971Z,65.13
2018-12-27T20:21:23.024Z,64.89
2018-12-27T20:23:54.389Z,64.97
2018-12-27T20:26:25.471Z,64.57
2018-12-27T20:28:56.472Z,64.56
2018-12-27T20:31:27.542Z,65.13
2018-12-27T20:33:59.993Z,65.08
2018-12-27T20:36:31.123Z,64.59
2018-12-27T20:39:02.073Z,65.22
2018-12-27T20:41:33.237Z,64.79
2018-12-27T20:44:04.336Z,64.81
2018-12-27T20:46:35.430Z,64.68
2018-12-27T20:49:06.423Z,64.82
2018-12-27T20:51:37.417Z,64.66
2018-12-27T20:54:08.376Z,64.18
2018-12-27T20:56:39.488Z,64.75
2018-12-27T20:59:10.516Z,64.39
2018-12-27T21:01:41.528Z,64.35
2018-12-27T21:04:12.482Z,64.13
2018-12-27T21:06:43.552Z,64.42
2018-12-27T21:09:14.861Z,64.25
2018-12-27T21:11:45.922Z,64.57
2018-12-27T21:14:16.889Z,64.23
2018-12-27T21:16:49.366Z,64.14
2018-12-27T21:19:20.386Z,64.37
2018-12-27T21:21:51.682Z,64.86
2018-12-27T21:24:23.149Z,64.97
2018-12-27T21:26:55.696Z,64.96
2018-12-27T21:29:27.739Z,65.34
2018-12-27T21:31:58.824Z,64.99
2018-12-27T21:34:29.812Z,65.04
2018-12-27T21:37:01.168Z,65.27
2018-12-27T21:39:32.128Z,65.03
2018-12-27T21:42:03.181Z,65.24
2018-12-27T21:44:34.176Z,64.87
2018-12-27T21:47:05.239Z,64.98
2018-12-27T21:49:36.670Z,65.74
2018-12-27T21:52:07.681Z,65.77
2018-12-27T21:54:39.336Z,65.35
2018-12-27T21:57:10.351Z,65.56
2018-12-27T21:59:41.306Z,65.64
2018-12-27T22:02:12.633Z,65.53
2018-12-27T22:04:43.676Z,65.70
2018-12-27T22:07:14.706Z,65.18
2018-12-27T22:09:46.011Z,64.98
2018-12-27T22:12:16.993Z,64.95
2018-12-27T22:14:49.136Z,65.28
2018-12-27T22:17:20.696Z,64.96
2018-12-27T22:19:51.734Z,64.79
2018-12-27T22:22:23.263Z,64.48
2018-12-27T22:24:54.227Z,64.64
2018-12-27T22:27:25.218Z,64.13
2018-12-27T22:29:56.488Z,64.21
2018-12-27T22:32:28.232Z,65.49
2018-12-27T22:34:59.903Z,64.73
2018-12-27T22:37:30.986Z,64.67
2018-12-27T22:40:02.702Z,64.88
2018-12-27T22:42:33.679Z,64.57
2018-12-27T22:45:04.782Z,65.48
2018-12-27T22:47:35.804Z,65.01
2018-12-27T22:50:07.784Z,64.70
2018-12-27T22:52:39.504Z,64.44
2018-12-27T22:55:10.505Z,64.86
2018-12-27T22:57:41.550Z,65.29
2018-12-27T23:00:21.850Z,64.73
2018-12-27T23:02:53.667Z,64.69
2018-12-27T23:05:25.609Z,65.22
2018-12-27T23:07:56.892Z,64.90
2018-12-27T23:10:27.851Z,64.67
2018-12-27T23:12:59.819Z,64.65
2018-12-27T23:15:30.922Z,64.95
2018-12-27T23:18:01.908Z,65.25
2018-12-27T23:20:34.211Z,64.96
2018-12-27T23:23:05.467Z,65.27
2018-12-27T23:25:36.467Z,64.61
2018-12-27T23:28:07.466Z,64.59
2018-12-27T23:30:38.605Z,64.63
2018-12-27T23:33:09.592Z,64.66
2018-12-27T23:35:40.547Z,64.41
2018-12-27T23:38:11.736Z,64.54
2018-12-27T23:40:42.765Z,64.62
2018-12-27T23:43:14.094Z,64.05
2018-12-27T23:45:45.333Z,63.99
2018-12-27T23:48:16.415Z,63.65
2018-12-27T23:50:47.361Z,63.38
2018-12-27T23:53:18.394Z,63.71
2018-12-27T23:55:49.892Z,64.41
2018-12-27T23:58:21.145Z,64.30
